sensor_id;sensor_type;location;lat;lon;timestamp;temperature;humidity
53073;DHT22;38955;48.916;2.336;2023-08-12T00:00:43;21.40;99.90
53073;DHT22;38955;48.916;2.336;2023-08-12T00:02:46;21.30;99.90
53073;DHT22;38955;48.916;2.336;2023-08-12T00:04:48;21.30;99.90
53073;DHT22;38955;48.916;2.336;2023-08-12T00:06:51;21.30;99.90
53073;DHT22;38955;48.916;2.336;2023-08-12T00:08:53;21.30;99.90
53073;DHT22;38955;48.916;2.336;2023-08-12T00:10:56;21.20;99.90
53073;DHT22;38955;48.916;2.336;2023-08-12T00:12:58;21.30;99.90
53073;DHT22;38955;48.916;2.336;2023-08-12T00:15:01;21.20;99.90
53073;DHT22;38955;48.916;2.336;2023-08-12T00:17:04;21.30;99.90
53073;DHT22;38955;48.916;2.336;2023-08-12T00:19:06;21.30;99.90
53073;DHT22;38955;48.916;2.336;2023-08-12T00:21:13;21.20;99.90
53073;DHT22;38955;48.916;2.336;2023-08-12T00:23:17;21.20;99.90
53073;DHT22;38955;48.916;2.336;2023-08-12T00:25:19;21.30;99.90
53073;DHT22;38955;48.916;2.336;2023-08-12T00:27:21;21.20;99.90
53073;DHT22;38955;48.916;2.336;2023-08-12T00:29:23;21.20;99.90
53073;DHT22;38955;48.916;2.336;2023-08-12T00:31:25;21.30;99.90
53073;DHT22;38955;48.916;2.336;2023-08-12T00:33:27;21.30;99.90
53073;DHT22;38955;48.916;2.336;2023-08-12T00:35:29;21.30;99.90
53073;DHT22;38955;48.916;2.336;2023-08-12T00:37:32;21.30;99.90
53073;DHT22;38955;48.916;2.336;2023-08-12T00:39:35;21.30;99.90
53073;DHT22;38955;48.916;2.336;2023-08-12T00:41:37;21.30;99.90
53073;DHT22;38955;48.916;2.336;2023-08-12T00:43:39;21.30;99.90
53073;DHT22;38955;48.916;2.336;2023-08-12T00:45:41;21.30;99.90
53073;DHT22;38955;48.916;2.336;2023-08-12T00:47:43;21.30;99.90
53073;DHT22;38955;48.916;2.336;2023-08-12T00:49:45;21.30;99.90
53073;DHT22;38955;48.916;2.336;2023-08-12T00:51:49;21.30;99.90
53073;DHT22;38955;48.916;2.336;2023-08-12T00:53:51;21.30;99.90
53073;DHT22;38955;48.916;2.336;2023-08-12T00:55:55;21.30;99.90
53073;DHT22;38955;48.916;2.336;2023-08-12T00:57:58;21.30;99.90
53073;DHT22;38955;48.916;2.336;2023-08-12T01:00:00;21.30;99.90
53073;DHT22;38955;48.916;2.336;2023-08-12T01:02:05;21.20;99.90
53073;DHT22;38955;48.916;2.336;2023-08-12T01:04:07;21.20;99.90
53073;DHT22;38955;48.916;2.336;2023-08-12T01:06:09;21.20;99.90
53073;DHT22;38955;48.916;2.336;2023-08-12T01:08:11;21.20;99.90
53073;DHT22;38955;48.916;2.336;2023-08-12T01:10:14;21.20;99.90
53073;DHT22;38955;48.916;2.336;2023-08-12T01:12:24;21.20;99.90
53073;DHT22;38955;48.916;2.336;2023-08-12T01:14:33;21.20;99.90
53073;DHT22;38955;48.916;2.336;2023-08-12T01:16:42;21.10;99.90
53073;DHT22;38955;48.916;2.336;2023-08-12T01:18:45;21.10;99.90
53073;DHT22;38955;48.916;2.336;2023-08-12T01:20:53;21.20;99.90
53073;DHT22;38955;48.916;2.336;2023-08-12T01:23:09;21.10;99.90
53073;DHT22;38955;48.916;2.336;2023-08-12T01:25:12;21.20;99.90
53073;DHT22;38955;48.916;2.336;2023-08-12T01:27:15;21.20;99.90
53073;DHT22;38955;48.916;2.336;2023-08-12T01:29:17;21.20;99.90
53073;DHT22;38955;48.916;2.336;2023-08-12T01:31:32;21.20;99.90
53073;DHT22;38955;48.916;2.336;2023-08-12T01:33:42;21.20;99.90
53073;DHT22;38955;48.916;2.336;2023-08-12T01:35:52;21.20;99.90
53073;DHT22;38955;48.916;2.336;2023-08-12T01:37:57;21.20;99.90
53073;DHT22;38955;48.916;2.336;2023-08-12T01:40:01;21.20;99.90
53073;DHT22;38955;48.916;2.336;2023-08-12T01:42:06;21.20;99.90
53073;DHT22;38955;48.916;2.336;2023-08-12T01:44:08;21.10;99.90
53073;DHT22;38955;48.916;2.336;2023-08-12T01:46:10;21.10;99.90
53073;DHT22;38955;48.916;2.336;2023-08-12T01:48:12;21.00;99.90
53073;DHT22;38955;48.916;2.336;2023-08-12T01:50:15;21.00;99.90
53073;DHT22;38955;48.916;2.336;2023-08-12T01:52:17;21.00;99.90
53073;DHT22;38955;48.916;2.336;2023-08-12T01:54:19;21.00;99.90
53073;DHT22;38955;48.916;2.336;2023-08-12T01:56:23;21.00;99.90
53073;DHT22;38955;48.916;2.336;2023-08-12T01:58:25;21.00;99.90
53073;DHT22;38955;48.916;2.336;2023-08-12T02:00:28;21.00;99.90
53073;DHT22;38955;48.916;2.336;2023-08-12T02:02:30;21.00;99.90
53073;DHT22;38955;48.916;2.336;2023-08-12T02:04:33;21.00;99.90
53073;DHT22;38955;48.916;2.336;2023-08-12T02:06:35;21.00;99.90
53073;DHT22;38955;48.916;2.336;2023-08-12T02:08:37;21.10;99.90
53073;DHT22;38955;48.916;2.336;2023-08-12T02:10:40;21.10;99.90
53073;DHT22;38955;48.916;2.336;2023-08-12T02:12:43;21.10;99.90
53073;DHT22;38955;48.916;2.336;2023-08-12T02:14:45;21.10;99.90
53073;DHT22;38955;48.916;2.336;2023-08-12T02:16:47;21.10;99.90
53073;DHT22;38955;48.916;2.336;2023-08-12T02:18:49;21.10;99.90
53073;DHT22;38955;48.916;2.336;2023-08-12T02:20:51;21.00;99.90
53073;DHT22;38955;48.916;2.336;2023-08-12T02:22:54;21.10;99.90
53073;DHT22;38955;48.916;2.336;2023-08-12T02:24:56;21.00;99.90
53073;DHT22;38955;48.916;2.336;2023-08-12T02:26:58;21.00;99.90
53073;DHT22;38955;48.916;2.336;2023-08-12T02:29:01;21.00;99.90
53073;DHT22;38955;48.916;2.336;2023-08-12T02:31:03;21.00;99.90
53073;DHT22;38955;48.916;2.336;2023-08-12T02:33:06;21.00;99.90
53073;DHT22;38955;48.916;2.336;2023-08-12T02:35:08;21.00;99.90
53073;DHT22;38955;48.916;2.336;2023-08-12T02:37:10;21.00;99.90
53073;DHT22;38955;48.916;2.336;2023-08-12T02:39:14;21.00;99.90
53073;DHT22;38955;48.916;2.336;2023-08-12T02:41:17;21.00;99.90
53073;DHT22;38955;48.916;2.336;2023-08-12T02:43:19;21.00;99.90
53073;DHT22;38955;48.916;2.336;2023-08-12T02:45:22;21.00;99.90
53073;DHT22;38955;48.916;2.336;2023-08-12T02:47:24;21.00;99.90
53073;DHT22;38955;48.916;2.336;2023-08-12T02:49:26;20.90;99.90
53073;DHT22;38955;48.916;2.336;2023-08-12T02:51:29;20.90;99.90
53073;DHT22;38955;48.916;2.336;2023-08-12T02:53:31;21.00;99.90
53073;DHT22;38955;48.916;2.336;2023-08-12T02:55:34;21.00;99.90
53073;DHT22;38955;48.916;2.336;2023-08-12T02:57:36;21.00;99.90
53073;DHT22;38955;48.916;2.336;2023-08-12T02:59:38;21.00;99.90
53073;DHT22;38955;48.916;2.336;2023-08-12T03:01:42;21.00;99.90
53073;DHT22;38955;48.916;2.336;2023-08-12T03:03:44;20.90;99.90
53073;DHT22;38955;48.916;2.336;2023-08-12T03:05:46;20.90;99.90
53073;DHT22;38955;48.916;2.336;2023-08-12T03:07:49;20.90;99.90
53073;DHT22;38955;48.916;2.336;2023-08-12T03:09:51;20.90;99.90
53073;DHT22;38955;48.916;2.336;2023-08-12T03:11:53;20.90;99.90
53073;DHT22;38955;48.916;2.336;2023-08-12T03:13:55;20.90;99.90
53073;DHT22;38955;48.916;2.336;2023-08-12T03:15:57;20.90;99.90
53073;DHT22;38955;48.916;2.336;2023-08-12T03:18:01;20.90;99.90
53073;DHT22;38955;48.916;2.336;2023-08-12T03:20:04;20.90;99.90
53073;DHT22;38955;48.916;2.336;2023-08-12T03:22:07;20.90;99.90
53073;DHT22;38955;48.916;2.336;2023-08-12T03:24:09;20.90;99.90
53073;DHT22;38955;48.916;2.336;2023-08-12T03:26:11;20.90;99.90
53073;DHT22;38955;48.916;2.336;2023-08-12T03:28:13;21.00;99.90
53073;DHT22;38955;48.916;2.336;2023-08-12T03:30:16;20.90;99.90
53073;DHT22;38955;48.916;2.336;2023-08-12T03:32:18;20.90;99.90
53073;DHT22;38955;48.916;2.336;2023-08-12T03:34:21;20.90;99.90
53073;DHT22;38955;48.916;2.336;2023-08-12T03:36:23;20.90;99.90
53073;DHT22;38955;48.916;2.336;2023-08-12T03:38:25;20.90;99.90
53073;DHT22;38955;48.916;2.336;2023-08-12T03:40:27;20.90;99.90
53073;DHT22;38955;48.916;2.336;2023-08-12T03:42:29;20.80;99.90
53073;DHT22;38955;48.916;2.336;2023-08-12T03:44:32;20.80;99.90
53073;DHT22;38955;48.916;2.336;2023-08-12T03:46:34;20.70;99.90
53073;DHT22;38955;48.916;2.336;2023-08-12T03:48:36;20.70;99.90
53073;DHT22;38955;48.916;2.336;2023-08-12T03:50:40;20.80;99.90
53073;DHT22;38955;48.916;2.336;2023-08-12T03:52:43;20.80;99.90
53073;DHT22;38955;48.916;2.336;2023-08-12T03:54:45;20.80;99.90
53073;DHT22;38955;48.916;2.336;2023-08-12T03:56:47;20.70;99.90
53073;DHT22;38955;48.916;2.336;2023-08-12T03:58:49;20.80;99.90
53073;DHT22;38955;48.916;2.336;2023-08-12T04:00:51;20.80;99.90
53073;DHT22;38955;48.916;2.336;2023-08-12T04:02:53;20.80;99.90
53073;DHT22;38955;48.916;2.336;2023-08-12T04:04:56;20.80;99.90
53073;DHT22;38955;48.916;2.336;2023-08-12T04:07:00;20.80;99.90
53073;DHT22;38955;48.916;2.336;2023-08-12T04:09:02;20.90;99.90
53073;DHT22;38955;48.916;2.336;2023-08-12T04:11:04;20.90;99.90
53073;DHT22;38955;48.916;2.336;2023-08-12T04:13:06;20.90;99.90
53073;DHT22;38955;48.916;2.336;2023-08-12T04:15:09;20.80;99.90
53073;DHT22;38955;48.916;2.336;2023-08-12T04:17:11;20.90;99.90
53073;DHT22;38955;48.916;2.336;2023-08-12T04:19:14;20.80;99.90
53073;DHT22;38955;48.916;2.336;2023-08-12T04:21:16;20.90;99.90
53073;DHT22;38955;48.916;2.336;2023-08-12T04:23:19;20.90;99.90
53073;DHT22;38955;48.916;2.336;2023-08-12T04:25:21;20.90;99.90
53073;DHT22;38955;48.916;2.336;2023-08-12T04:27:24;20.90;99.90
53073;DHT22;38955;48.916;2.336;2023-08-12T04:29:26;20.90;99.90
53073;DHT22;38955;48.916;2.336;2023-08-12T04:31:28;20.90;99.90
53073;DHT22;38955;48.916;2.336;2023-08-12T04:33:30;20.90;99.90
53073;DHT22;38955;48.916;2.336;2023-08-12T04:35:32;20.90;99.90
53073;DHT22;38955;48.916;2.336;2023-08-12T04:37:35;20.90;99.90
53073;DHT22;38955;48.916;2.336;2023-08-12T04:39:39;20.90;99.90
53073;DHT22;38955;48.916;2.336;2023-08-12T04:41:42;20.90;99.90
53073;DHT22;38955;48.916;2.336;2023-08-12T04:43:44;20.90;99.90
53073;DHT22;38955;48.916;2.336;2023-08-12T04:45:46;20.90;99.90
53073;DHT22;38955;48.916;2.336;2023-08-12T04:47:51;20.80;99.90
53073;DHT22;38955;48.916;2.336;2023-08-12T04:49:53;20.90;99.90
53073;DHT22;38955;48.916;2.336;2023-08-12T04:51:58;20.80;99.90
53073;DHT22;38955;48.916;2.336;2023-08-12T04:54:00;20.80;99.90
53073;DHT22;38955;48.916;2.336;2023-08-12T04:56:05;20.80;99.90
53073;DHT22;38955;48.916;2.336;2023-08-12T04:58:07;20.80;99.90
53073;DHT22;38955;48.916;2.336;2023-08-12T05:00:10;20.80;99.90
53073;DHT22;38955;48.916;2.336;2023-08-12T05:02:12;20.80;99.90
53073;DHT22;38955;48.916;2.336;2023-08-12T05:04:15;20.80;99.90
53073;DHT22;38955;48.916;2.336;2023-08-12T05:06:17;20.80;99.90
53073;DHT22;38955;48.916;2.336;2023-08-12T05:08:19;20.80;99.90
53073;DHT22;38955;48.916;2.336;2023-08-12T05:10:21;20.80;99.90
53073;DHT22;38955;48.916;2.336;2023-08-12T05:12:25;20.80;99.90
53073;DHT22;38955;48.916;2.336;2023-08-12T05:14:27;20.80;99.90
53073;DHT22;38955;48.916;2.336;2023-08-12T05:16:29;20.80;99.90
53073;DHT22;38955;48.916;2.336;2023-08-12T05:18:31;20.80;99.90
53073;DHT22;38955;48.916;2.336;2023-08-12T05:20:33;20.80;99.90
53073;DHT22;38955;48.916;2.336;2023-08-12T05:22:35;20.80;99.90
53073;DHT22;38955;48.916;2.336;2023-08-12T05:24:37;20.80;99.90
53073;DHT22;38955;48.916;2.336;2023-08-12T05:26:40;20.80;99.90
53073;DHT22;38955;48.916;2.336;2023-08-12T05:28:43;20.80;99.90
53073;DHT22;38955;48.916;2.336;2023-08-12T05:30:45;20.80;99.90
53073;DHT22;38955;48.916;2.336;2023-08-12T05:32:47;20.80;99.90
53073;DHT22;38955;48.916;2.336;2023-08-12T05:34:50;20.80;99.90
53073;DHT22;38955;48.916;2.336;2023-08-12T05:36:52;20.80;99.90
53073;DHT22;38955;48.916;2.336;2023-08-12T05:38:54;20.80;99.90
53073;DHT22;38955;48.916;2.336;2023-08-12T05:40:56;20.90;99.90
53073;DHT22;38955;48.916;2.336;2023-08-12T05:42:58;20.90;99.90
53073;DHT22;38955;48.916;2.336;2023-08-12T05:45:02;20.80;99.90
53073;DHT22;38955;48.916;2.336;2023-08-12T05:47:09;20.80;99.90
53073;DHT22;38955;48.916;2.336;2023-08-12T05:49:11;20.90;99.90
53073;DHT22;38955;48.916;2.336;2023-08-12T05:51:13;20.90;99.90
53073;DHT22;38955;48.916;2.336;2023-08-12T05:53:15;20.90;99.90
53073;DHT22;38955;48.916;2.336;2023-08-12T05:55:17;20.90;99.90
53073;DHT22;38955;48.916;2.336;2023-08-12T05:57:19;20.90;99.90
53073;DHT22;38955;48.916;2.336;2023-08-12T05:59:22;20.90;99.90
53073;DHT22;38955;48.916;2.336;2023-08-12T06:01:25;21.00;99.90
53073;DHT22;38955;48.916;2.336;2023-08-12T06:03:27;20.90;99.90
53073;DHT22;38955;48.916;2.336;2023-08-12T06:05:29;20.90;99.90
53073;DHT22;38955;48.916;2.336;2023-08-12T06:07:31;20.90;99.90
53073;DHT22;38955;48.916;2.336;2023-08-12T06:09:34;20.90;99.90
53073;DHT22;38955;48.916;2.336;2023-08-12T06:11:36;20.90;99.90
53073;DHT22;38955;48.916;2.336;2023-08-12T06:13:38;20.90;99.90
53073;DHT22;38955;48.916;2.336;2023-08-12T06:15:40;20.90;99.90
53073;DHT22;38955;48.916;2.336;2023-08-12T06:17:43;20.90;99.90
53073;DHT22;38955;48.916;2.336;2023-08-12T06:19:45;20.90;99.90
53073;DHT22;38955;48.916;2.336;2023-08-12T06:21:48;20.90;99.90
53073;DHT22;38955;48.916;2.336;2023-08-12T06:23:50;21.00;99.90
53073;DHT22;38955;48.916;2.336;2023-08-12T06:25:52;20.90;99.90
53073;DHT22;38955;48.916;2.336;2023-08-12T06:27:54;20.90;99.90
53073;DHT22;38955;48.916;2.336;2023-08-12T06:29:56;20.90;99.90
53073;DHT22;38955;48.916;2.336;2023-08-12T06:31:58;21.00;99.90
53073;DHT22;38955;48.916;2.336;2023-08-12T06:34:01;20.90;99.90
53073;DHT22;38955;48.916;2.336;2023-08-12T06:36:04;20.90;99.90
53073;DHT22;38955;48.916;2.336;2023-08-12T06:38:06;20.90;99.90
53073;DHT22;38955;48.916;2.336;2023-08-12T06:40:10;20.90;99.90
53073;DHT22;38955;48.916;2.336;2023-08-12T06:42:12;20.90;99.90
53073;DHT22;38955;48.916;2.336;2023-08-12T06:44:15;20.90;99.90
53073;DHT22;38955;48.916;2.336;2023-08-12T06:46:17;20.90;99.90
53073;DHT22;38955;48.916;2.336;2023-08-12T06:48:19;20.90;99.90
53073;DHT22;38955;48.916;2.336;2023-08-12T06:50:23;21.00;99.90
53073;DHT22;38955;48.916;2.336;2023-08-12T06:52:25;21.00;99.90
53073;DHT22;38955;48.916;2.336;2023-08-12T06:54:27;21.00;99.90
53073;DHT22;38955;48.916;2.336;2023-08-12T06:56:29;21.00;99.90
53073;DHT22;38955;48.916;2.336;2023-08-12T06:58:31;21.00;99.90
53073;DHT22;38955;48.916;2.336;2023-08-12T07:00:33;21.10;99.90
53073;DHT22;38955;48.916;2.336;2023-08-12T07:02:36;21.10;99.90
53073;DHT22;38955;48.916;2.336;2023-08-12T07:04:38;21.10;99.90
53073;DHT22;38955;48.916;2.336;2023-08-12T07:06:41;21.00;99.90
53073;DHT22;38955;48.916;2.336;2023-08-12T07:08:44;20.80;99.90
53073;DHT22;38955;48.916;2.336;2023-08-12T07:10:46;20.70;99.90
53073;DHT22;38955;48.916;2.336;2023-08-12T07:12:48;20.70;99.90
53073;DHT22;38955;48.916;2.336;2023-08-12T07:14:50;20.50;99.90
53073;DHT22;38955;48.916;2.336;2023-08-12T07:16:52;20.50;99.90
53073;DHT22;38955;48.916;2.336;2023-08-12T07:18:55;20.50;99.90
53073;DHT22;38955;48.916;2.336;2023-08-12T07:20:57;20.50;99.90
53073;DHT22;38955;48.916;2.336;2023-08-12T07:23:03;20.40;99.90
53073;DHT22;38955;48.916;2.336;2023-08-12T07:25:06;20.40;99.90
53073;DHT22;38955;48.916;2.336;2023-08-12T07:27:08;20.40;99.90
53073;DHT22;38955;48.916;2.336;2023-08-12T07:29:10;20.40;99.90
53073;DHT22;38955;48.916;2.336;2023-08-12T07:31:12;20.40;99.90
53073;DHT22;38955;48.916;2.336;2023-08-12T07:33:15;20.40;99.90
53073;DHT22;38955;48.916;2.336;2023-08-12T07:35:17;20.30;99.90
53073;DHT22;38955;48.916;2.336;2023-08-12T07:37:19;20.30;99.90
53073;DHT22;38955;48.916;2.336;2023-08-12T07:39:22;20.30;99.90
53073;DHT22;38955;48.916;2.336;2023-08-12T07:41:25;20.30;99.90
53073;DHT22;38955;48.916;2.336;2023-08-12T07:43:29;20.30;99.90
53073;DHT22;38955;48.916;2.336;2023-08-12T07:45:31;20.30;99.90
53073;DHT22;38955;48.916;2.336;2023-08-12T07:47:33;20.30;99.90
53073;DHT22;38955;48.916;2.336;2023-08-12T07:49:35;20.30;99.90
53073;DHT22;38955;48.916;2.336;2023-08-12T07:51:38;20.10;99.90
53073;DHT22;38955;48.916;2.336;2023-08-12T07:53:40;20.20;99.90
53073;DHT22;38955;48.916;2.336;2023-08-12T07:55:43;20.20;99.90
53073;DHT22;38955;48.916;2.336;2023-08-12T07:57:45;20.20;99.90
53073;DHT22;38955;48.916;2.336;2023-08-12T07:59:47;20.30;99.90
53073;DHT22;38955;48.916;2.336;2023-08-12T08:01:49;20.50;99.90
53073;DHT22;38955;48.916;2.336;2023-08-12T08:03:52;20.40;99.90
53073;DHT22;38955;48.916;2.336;2023-08-12T08:05:55;20.50;99.90
53073;DHT22;38955;48.916;2.336;2023-08-12T08:07:57;20.50;99.90
53073;DHT22;38955;48.916;2.336;2023-08-12T08:09:59;20.50;99.90
53073;DHT22;38955;48.916;2.336;2023-08-12T08:12:03;20.50;99.90
53073;DHT22;38955;48.916;2.336;2023-08-12T08:14:06;20.60;99.90
53073;DHT22;38955;48.916;2.336;2023-08-12T08:16:08;20.70;99.90
53073;DHT22;38955;48.916;2.336;2023-08-12T08:18:10;20.70;99.90
53073;DHT22;38955;48.916;2.336;2023-08-12T08:20:12;20.80;99.90
53073;DHT22;38955;48.916;2.336;2023-08-12T08:22:14;21.00;99.90
53073;DHT22;38955;48.916;2.336;2023-08-12T08:24:16;21.20;99.90
53073;DHT22;38955;48.916;2.336;2023-08-12T08:26:18;21.20;99.90
53073;DHT22;38955;48.916;2.336;2023-08-12T08:28:22;21.30;99.90
53073;DHT22;38955;48.916;2.336;2023-08-12T08:30:25;21.50;99.90
53073;DHT22;38955;48.916;2.336;2023-08-12T08:32:27;21.50;99.90
53073;DHT22;38955;48.916;2.336;2023-08-12T08:34:29;21.50;99.90
53073;DHT22;38955;48.916;2.336;2023-08-12T08:36:31;21.50;99.90
53073;DHT22;38955;48.916;2.336;2023-08-12T08:38:33;21.60;99.90
53073;DHT22;38955;48.916;2.336;2023-08-12T08:40:36;21.50;99.90
53073;DHT22;38955;48.916;2.336;2023-08-12T08:42:39;21.60;99.90
53073;DHT22;38955;48.916;2.336;2023-08-12T08:44:45;21.60;99.90
53073;DHT22;38955;48.916;2.336;2023-08-12T08:46:49;21.70;99.90
53073;DHT22;38955;48.916;2.336;2023-08-12T08:48:51;21.80;99.90
53073;DHT22;38955;48.916;2.336;2023-08-12T08:50:54;22.00;99.90
53073;DHT22;38955;48.916;2.336;2023-08-12T08:52:56;22.10;99.90
53073;DHT22;38955;48.916;2.336;2023-08-12T08:55:00;22.20;99.90
53073;DHT22;38955;48.916;2.336;2023-08-12T08:57:08;22.30;99.90
53073;DHT22;38955;48.916;2.336;2023-08-12T08:59:21;22.30;99.90
53073;DHT22;38955;48.916;2.336;2023-08-12T09:01:26;22.40;99.90
53073;DHT22;38955;48.916;2.336;2023-08-12T09:03:29;22.30;99.90
53073;DHT22;38955;48.916;2.336;2023-08-12T09:05:32;22.40;99.90
53073;DHT22;38955;48.916;2.336;2023-08-12T09:07:35;22.40;99.90
53073;DHT22;38955;48.916;2.336;2023-08-12T09:09:38;22.30;99.90
53073;DHT22;38955;48.916;2.336;2023-08-12T09:11:41;22.30;99.90
53073;DHT22;38955;48.916;2.336;2023-08-12T09:13:43;22.50;99.90
53073;DHT22;38955;48.916;2.336;2023-08-12T09:15:45;22.50;99.90
53073;DHT22;38955;48.916;2.336;2023-08-12T09:17:49;22.70;99.90
53073;DHT22;38955;48.916;2.336;2023-08-12T09:19:51;22.80;99.90
53073;DHT22;38955;48.916;2.336;2023-08-12T09:21:53;22.90;99.90
53073;DHT22;38955;48.916;2.336;2023-08-12T09:23:56;23.00;99.90
53073;DHT22;38955;48.916;2.336;2023-08-12T09:25:58;23.00;99.90
53073;DHT22;38955;48.916;2.336;2023-08-12T09:28:00;23.10;99.90
53073;DHT22;38955;48.916;2.336;2023-08-12T09:30:03;23.20;99.90
53073;DHT22;38955;48.916;2.336;2023-08-12T09:32:06;23.20;99.90
53073;DHT22;38955;48.916;2.336;2023-08-12T09:34:10;23.20;99.90
53073;DHT22;38955;48.916;2.336;2023-08-12T09:36:13;23.30;99.90
53073;DHT22;38955;48.916;2.336;2023-08-12T09:38:15;23.40;99.90
53073;DHT22;38955;48.916;2.336;2023-08-12T09:40:17;23.50;99.90
53073;DHT22;38955;48.916;2.336;2023-08-12T09:42:19;23.50;99.90
53073;DHT22;38955;48.916;2.336;2023-08-12T09:44:22;23.60;99.90
53073;DHT22;38955;48.916;2.336;2023-08-12T09:46:24;23.60;99.90
53073;DHT22;38955;48.916;2.336;2023-08-12T09:48:26;23.60;99.90
53073;DHT22;38955;48.916;2.336;2023-08-12T09:50:30;23.60;99.90
53073;DHT22;38955;48.916;2.336;2023-08-12T09:52:32;23.60;99.90
53073;DHT22;38955;48.916;2.336;2023-08-12T09:54:35;23.40;99.90
53073;DHT22;38955;48.916;2.336;2023-08-12T09:56:39;23.40;99.90
53073;DHT22;38955;48.916;2.336;2023-08-12T09:58:42;23.40;99.90
53073;DHT22;38955;48.916;2.336;2023-08-12T10:00:45;23.30;99.90
53073;DHT22;38955;48.916;2.336;2023-08-12T10:02:49;23.20;99.90
53073;DHT22;38955;48.916;2.336;2023-08-12T10:04:53;23.20;99.90
53073;DHT22;38955;48.916;2.336;2023-08-12T10:07:00;23.20;99.90
53073;DHT22;38955;48.916;2.336;2023-08-12T10:09:02;23.10;99.90
53073;DHT22;38955;48.916;2.336;2023-08-12T10:11:05;23.00;99.90
53073;DHT22;38955;48.916;2.336;2023-08-12T10:13:14;23.00;99.90
53073;DHT22;38955;48.916;2.336;2023-08-12T10:15:17;23.10;99.90
53073;DHT22;38955;48.916;2.336;2023-08-12T10:17:21;23.30;99.90
53073;DHT22;38955;48.916;2.336;2023-08-12T10:19:44;23.40;99.90
53073;DHT22;38955;48.916;2.336;2023-08-12T10:21:48;23.50;99.90
53073;DHT22;38955;48.916;2.336;2023-08-12T10:23:53;23.60;99.90
53073;DHT22;38955;48.916;2.336;2023-08-12T10:25:58;23.80;99.90
53073;DHT22;38955;48.916;2.336;2023-08-12T10:28:01;23.90;99.90
53073;DHT22;38955;48.916;2.336;2023-08-12T10:30:04;23.80;99.90
53073;DHT22;38955;48.916;2.336;2023-08-12T10:32:06;23.80;99.90
53073;DHT22;38955;48.916;2.336;2023-08-12T10:34:18;23.90;99.90
53073;DHT22;38955;48.916;2.336;2023-08-12T10:36:21;23.80;99.90
53073;DHT22;38955;48.916;2.336;2023-08-12T10:38:24;23.90;99.90
53073;DHT22;38955;48.916;2.336;2023-08-12T10:40:29;23.80;99.90
53073;DHT22;38955;48.916;2.336;2023-08-12T10:42:41;23.70;99.90
53073;DHT22;38955;48.916;2.336;2023-08-12T10:44:50;23.80;99.90
53073;DHT22;38955;48.916;2.336;2023-08-12T10:46:58;23.90;99.90
53073;DHT22;38955;48.916;2.336;2023-08-12T10:49:03;23.80;99.90
53073;DHT22;38955;48.916;2.336;2023-08-12T10:51:06;23.70;99.90
53073;DHT22;38955;48.916;2.336;2023-08-12T10:53:21;23.60;99.90
53073;DHT22;38955;48.916;2.336;2023-08-12T10:55:26;23.70;99.90
53073;DHT22;38955;48.916;2.336;2023-08-12T10:57:36;23.50;99.90
53073;DHT22;38955;48.916;2.336;2023-08-12T10:59:51;23.60;99.90
53073;DHT22;38955;48.916;2.336;2023-08-12T11:01:54;23.70;99.90
53073;DHT22;38955;48.916;2.336;2023-08-12T11:04:17;23.80;99.90
53073;DHT22;38955;48.916;2.336;2023-08-12T11:06:19;23.90;99.90
53073;DHT22;38955;48.916;2.336;2023-08-12T11:08:26;24.00;99.90
53073;DHT22;38955;48.916;2.336;2023-08-12T11:10:31;24.10;99.90
53073;DHT22;38955;48.916;2.336;2023-08-12T11:12:38;24.20;99.90
53073;DHT22;38955;48.916;2.336;2023-08-12T11:14:46;24.40;99.90
53073;DHT22;38955;48.916;2.336;2023-08-12T11:16:49;24.40;99.90
53073;DHT22;38955;48.916;2.336;2023-08-12T11:18:55;24.50;99.90
53073;DHT22;38955;48.916;2.336;2023-08-12T11:20:57;24.60;99.90
53073;DHT22;38955;48.916;2.336;2023-08-12T11:23:00;24.50;99.90
53073;DHT22;38955;48.916;2.336;2023-08-12T11:25:04;24.50;99.90
53073;DHT22;38955;48.916;2.336;2023-08-12T11:27:09;24.60;99.90
53073;DHT22;38955;48.916;2.336;2023-08-12T11:29:13;24.70;99.90
53073;DHT22;38955;48.916;2.336;2023-08-12T11:31:16;24.60;99.90
53073;DHT22;38955;48.916;2.336;2023-08-12T11:33:19;24.70;99.90
53073;DHT22;38955;48.916;2.336;2023-08-12T11:35:24;24.80;99.90
53073;DHT22;38955;48.916;2.336;2023-08-12T11:37:26;24.90;99.90
53073;DHT22;38955;48.916;2.336;2023-08-12T11:39:28;25.00;99.90
53073;DHT22;38955;48.916;2.336;2023-08-12T11:41:31;24.90;99.90
53073;DHT22;38955;48.916;2.336;2023-08-12T11:43:35;24.90;99.90
53073;DHT22;38955;48.916;2.336;2023-08-12T11:45:41;24.90;99.90
53073;DHT22;38955;48.916;2.336;2023-08-12T11:47:44;25.00;99.90
53073;DHT22;38955;48.916;2.336;2023-08-12T11:49:47;25.00;99.90
53073;DHT22;38955;48.916;2.336;2023-08-12T11:51:49;24.90;99.90
53073;DHT22;38955;48.916;2.336;2023-08-12T11:53:52;24.90;99.90
53073;DHT22;38955;48.916;2.336;2023-08-12T11:55:54;25.00;99.90
53073;DHT22;38955;48.916;2.336;2023-08-12T11:57:58;25.00;99.90
53073;DHT22;38955;48.916;2.336;2023-08-12T12:00:02;24.90;99.90
53073;DHT22;38955;48.916;2.336;2023-08-12T12:02:18;25.00;99.90
53073;DHT22;38955;48.916;2.336;2023-08-12T12:04:21;25.00;99.90
53073;DHT22;38955;48.916;2.336;2023-08-12T12:06:30;25.00;99.70
53073;DHT22;38955;48.916;2.336;2023-08-12T12:08:34;25.10;99.40
53073;DHT22;38955;48.916;2.336;2023-08-12T12:10:36;25.10;98.90
53073;DHT22;38955;48.916;2.336;2023-08-12T12:12:39;25.10;98.50
53073;DHT22;38955;48.916;2.336;2023-08-12T12:14:41;25.20;99.20
53073;DHT22;38955;48.916;2.336;2023-08-12T12:16:46;25.30;98.90
53073;DHT22;38955;48.916;2.336;2023-08-12T12:18:57;25.40;99.20
53073;DHT22;38955;48.916;2.336;2023-08-12T12:20:59;25.40;98.70
53073;DHT22;38955;48.916;2.336;2023-08-12T12:23:06;25.60;98.90
53073;DHT22;38955;48.916;2.336;2023-08-12T12:25:09;25.60;97.70
53073;DHT22;38955;48.916;2.336;2023-08-12T12:27:12;25.50;98.40
53073;DHT22;38955;48.916;2.336;2023-08-12T12:29:14;25.50;97.90
53073;DHT22;38955;48.916;2.336;2023-08-12T12:31:17;25.40;97.80
53073;DHT22;38955;48.916;2.336;2023-08-12T12:33:19;25.30;98.00
53073;DHT22;38955;48.916;2.336;2023-08-12T12:35:22;25.30;97.90
53073;DHT22;38955;48.916;2.336;2023-08-12T12:37:25;25.30;97.70
53073;DHT22;38955;48.916;2.336;2023-08-12T12:39:27;25.30;97.40
53073;DHT22;38955;48.916;2.336;2023-08-12T12:41:30;25.30;97.20
53073;DHT22;38955;48.916;2.336;2023-08-12T12:43:32;25.30;97.00
53073;DHT22;38955;48.916;2.336;2023-08-12T12:45:34;25.30;96.50
53073;DHT22;38955;48.916;2.336;2023-08-12T12:47:36;25.40;97.40
53073;DHT22;38955;48.916;2.336;2023-08-12T12:49:40;25.30;96.30
53073;DHT22;38955;48.916;2.336;2023-08-12T12:51:44;25.30;96.60
53073;DHT22;38955;48.916;2.336;2023-08-12T12:53:46;25.30;97.30
53073;DHT22;38955;48.916;2.336;2023-08-12T12:55:49;25.40;97.30
53073;DHT22;38955;48.916;2.336;2023-08-12T12:57:51;25.50;96.40